createdAt,value
2019-02-18T00:00:21.866Z,0.00
2019-02-18T00:01:21.852Z,0.00
2019-02-18T00:02:21.835Z,0.00
2019-02-18T00:03:21.870Z,0.00
2019-02-18T00:04:21.848Z,0.00
2019-02-18T00:05:21.817Z,0.00
2019-02-18T00:06:21.789Z,0.00
2019-02-18T00:07:21.781Z,0.00
2019-02-18T00:08:21.763Z,0.00
2019-02-18T00:09:21.750Z,0.00
2019-02-18T00:10:21.774Z,0.00
2019-02-18T00:11:21.743Z,0.00
2019-02-18T00:12:21.721Z,0.00
2019-02-18T00:13:21.708Z,0.00
2019-02-18T00:14:21.737Z,0.00
2019-02-18T00:15:21.699Z,0.00
2019-02-18T00:16:21.687Z,0.00
2019-02-18T00:17:21.676Z,0.00
2019-02-18T00:18:21.650Z,0.00
2019-02-18T00:19:21.643Z,0.00
2019-02-18T00:20:21.665Z,0.00
2019-02-18T00:21:21.639Z,0.00
2019-02-18T00:22:21.870Z,0.00
2019-02-18T00:23:21.602Z,0.00
2019-02-18T00:24:21.589Z,0.00
2019-02-18T00:25:21.595Z,0.00
2019-02-18T00:26:21.580Z,0.00
2019-02-18T00:27:21.570Z,0.00
2019-02-18T00:28:21.551Z,0.00
2019-02-18T00:29:21.564Z,0.00
2019-02-18T00:30:21.546Z,0.00
2019-02-18T00:31:21.514Z,0.00
2019-02-18T00:32:21.498Z,0.00
2019-02-18T00:33:21.495Z,0.00
2019-02-18T00:34:21.493Z,0.00
2019-02-18T00:35:21.497Z,0.00
2019-02-18T00:36:21.454Z,0.00
2019-02-18T00:37:24.557Z,0.00
2019-02-18T00:38:21.443Z,0.00
2019-02-18T00:39:21.435Z,0.00
2019-02-18T00:40:21.458Z,0.00
2019-02-18T00:41:21.411Z,0.00
2019-02-18T00:42:21.396Z,0.00
2019-02-18T00:43:21.389Z,0.00
2019-02-18T00:44:21.382Z,0.00
2019-02-18T00:45:21.356Z,0.00
2019-02-18T00:46:21.389Z,0.00
2019-02-18T00:47:21.422Z,0.00
2019-02-18T00:48:21.337Z,0.00
2019-02-18T00:49:21.324Z,0.00
2019-02-18T00:50:21.312Z,0.00
2019-02-18T00:51:21.305Z,0.00
2019-02-18T00:52:21.328Z,0.00
2019-02-18T00:53:21.283Z,0.00
2019-02-18T00:54:21.262Z,0.00
2019-02-18T00:55:21.248Z,0.00
2019-02-18T00:56:21.256Z,0.00
2019-02-18T00:57:21.232Z,0.00
2019-02-18T00:58:21.231Z,0.00
2019-02-18T00:59:21.219Z,0.00
2019-02-18T01:00:21.213Z,0.00
2019-02-18T01:01:21.232Z,0.00
2019-02-18T01:02:21.177Z,0.00
2019-02-18T01:03:21.162Z,0.00
2019-02-18T01:04:21.157Z,0.00
2019-02-18T01:05:21.141Z,0.00
2019-02-18T01:06:21.139Z,0.00
2019-02-18T01:07:21.175Z,0.00
2019-02-18T01:08:21.114Z,0.00
2019-02-18T01:09:21.108Z,0.00
2019-02-18T01:10:21.119Z,0.00
2019-02-18T01:11:21.088Z,0.00
2019-02-18T01:12:21.080Z,0.00
2019-02-18T01:13:21.085Z,0.00
2019-02-18T01:14:21.041Z,0.00
2019-02-18T01:15:21.031Z,0.00
2019-02-18T01:16:21.026Z,0.00
2019-02-18T01:17:21.010Z,0.00
2019-02-18T01:18:21.034Z,0.00
2019-02-18T01:19:21.000Z,0.00
2019-02-18T01:20:20.988Z,0.00
2019-02-18T01:21:20.993Z,0.00
2019-02-18T01:22:20.961Z,0.00
2019-02-18T01:23:20.969Z,0.00
2019-02-18T01:24:20.938Z,0.00
2019-02-18T01:25:20.940Z,0.00
2019-02-18T01:26:20.908Z,0.00
2019-02-18T01:27:20.897Z,0.00
2019-02-18T01:28:20.912Z,0.00
2019-02-18T01:29:20.881Z,0.00
2019-02-18T01:30:20.875Z,0.00
2019-02-18T01:31:20.862Z,0.00
2019-02-18T01:32:20.853Z,0.00
2019-02-18T01:33:20.845Z,0.00
2019-02-18T01:34:20.843Z,0.00
2019-02-18T01:35:20.809Z,0.00
2019-02-18T01:36:22.951Z,0.00
2019-02-18T01:37:20.792Z,0.00
2019-02-18T01:38:20.790Z,0.00
2019-02-18T01:39:20.795Z,0.00
2019-02-18T01:40:20.761Z,0.00
2019-02-18T01:41:20.744Z,0.00
2019-02-18T01:42:20.815Z,0.00
2019-02-18T01:43:20.729Z,0.00
2019-02-18T01:44:20.743Z,0.00
2019-02-18T01:45:20.704Z,0.00
2019-02-18T01:46:20.699Z,0.00
2019-02-18T01:47:20.678Z,0.00
2019-02-18T01:48:20.671Z,0.00
2019-02-18T01:49:20.656Z,0.00
2019-02-18T01:50:20.693Z,0.00
2019-02-18T01:51:20.643Z,0.00
2019-02-18T01:52:20.684Z,0.00
2019-02-18T01:53:20.625Z,0.00
2019-02-18T01:54:20.597Z,0.00
2019-02-18T01:55:20.590Z,0.00
2019-02-18T01:56:20.602Z,0.00
2019-02-18T01:57:20.579Z,0.00
2019-02-18T01:58:20.555Z,0.00
2019-02-18T01:59:20.547Z,0.00
2019-02-18T02:00:20.545Z,0.00
2019-02-18T02:01:20.550Z,0.00
2019-02-18T02:02:20.524Z,0.00
2019-02-18T02:03:20.517Z,0.00
2019-02-18T02:04:20.503Z,0.00
2019-02-18T02:05:20.496Z,0.00
2019-02-18T02:06:20.499Z,0.00
2019-02-18T02:07:20.465Z,0.00
2019-02-18T02:08:20.455Z,0.00
2019-02-18T02:09:20.442Z,0.00
2019-02-18T02:10:20.444Z,0.00
2019-02-18T02:11:20.458Z,0.00
2019-02-18T02:12:20.402Z,0.00
2019-02-18T02:13:20.400Z,0.00
2019-02-18T02:14:20.402Z,0.00
2019-02-18T02:15:20.389Z,0.00
2019-02-18T02:16:20.374Z,0.00
2019-02-18T02:17:20.387Z,0.00
2019-02-18T02:18:20.349Z,0.00
2019-02-18T02:19:20.341Z,0.00
2019-02-18T02:20:20.330Z,0.00
2019-02-18T02:21:20.313Z,0.00
2019-02-18T02:22:20.339Z,0.00
2019-02-18T02:23:20.306Z,0.00
2019-02-18T02:24:20.292Z,0.00
2019-02-18T02:25:20.285Z,0.00
2019-02-18T02:26:20.260Z,0.00
2019-02-18T02:27:20.248Z,0.00
2019-02-18T02:28:20.265Z,0.00
2019-02-18T02:29:20.241Z,0.00
2019-02-18T02:30:20.218Z,0.00
2019-02-18T02:31:20.207Z,0.00
2019-02-18T02:32:20.192Z,0.00
2019-02-18T02:33:20.216Z,0.00
2019-02-18T02:34:20.177Z,0.00
2019-02-18T02:35:20.178Z,0.00
2019-02-18T02:36:20.154Z,0.00
2019-02-18T02:37:20.145Z,0.00
2019-02-18T02:38:20.123Z,0.00
2019-02-18T02:39:20.132Z,0.00
2019-02-18T02:40:20.110Z,0.00
2019-02-18T02:41:20.094Z,0.00
2019-02-18T02:42:20.101Z,0.00
2019-02-18T02:43:20.094Z,0.00
2019-02-18T02:44:20.080Z,0.00
2019-02-18T02:45:20.058Z,0.00
2019-02-18T02:46:20.049Z,0.00
2019-02-18T02:47:20.050Z,0.00
2019-02-18T02:48:20.025Z,0.00
2019-02-18T02:49:20.040Z,0.00
2019-02-18T02:50:19.994Z,0.00
2019-02-18T02:51:19.987Z,0.00
2019-02-18T02:52:19.973Z,0.00
2019-02-18T02:53:19.969Z,0.00
2019-02-18T02:54:19.984Z,0.00
2019-02-18T02:55:19.947Z,0.00
2019-02-18T02:56:19.934Z,0.00
2019-02-18T02:57:19.931Z,0.00
2019-02-18T02:58:20.078Z,0.00
2019-02-18T02:59:20.231Z,0.00
2019-02-18T03:00:20.055Z,0.00
2019-02-18T03:01:19.886Z,0.00
2019-02-18T03:02:19.862Z,0.00
2019-02-18T03:03:19.854Z,0.00
2019-02-18T03:04:19.886Z,0.00
2019-02-18T03:05:19.831Z,0.00
2019-02-18T03:06:19.826Z,0.00
2019-02-18T03:07:19.818Z,0.00
2019-02-18T03:08:20.811Z,0.00
2019-02-18T03:09:19.819Z,0.00
2019-02-18T03:10:19.780Z,0.00
2019-02-18T03:11:19.763Z,0.00
2019-02-18T03:12:19.752Z,0.00
2019-02-18T03:13:19.745Z,0.00
2019-02-18T03:14:19.768Z,0.00
2019-02-18T03:15:19.729Z,0.00
2019-02-18T03:16:19.713Z,0.00
2019-02-18T03:17:19.697Z,0.00
2019-02-18T03:18:19.701Z,0.00
2019-02-18T03:19:19.682Z,0.00
2019-02-18T03:20:19.689Z,0.00
2019-02-18T03:21:19.658Z,0.00
2019-02-18T03:22:19.648Z,0.00
2019-02-18T03:23:19.637Z,0.00
2019-02-18T03:24:19.622Z,0.00
2019-02-18T03:25:19.646Z,0.00
2019-02-18T03:26:19.617Z,0.00
2019-02-18T03:27:19.594Z,0.00
2019-02-18T03:28:19.590Z,0.00
2019-02-18T03:29:19.576Z,0.00
2019-02-18T03:30:19.558Z,0.00
2019-02-18T03:31:19.573Z,0.00
2019-02-18T03:32:19.547Z,0.00
2019-02-18T03:33:19.553Z,0.00
2019-02-18T03:34:19.511Z,0.00
2019-02-18T03:35:19.498Z,0.00
2019-02-18T03:36:19.509Z,0.00
2019-02-18T03:37:19.485Z,0.00
2019-02-18T03:38:30.853Z,0.00
2019-02-18T03:39:20.472Z,0.00
2019-02-18T03:40:19.452Z,0.00
2019-02-18T03:41:19.476Z,0.00
2019-02-18T03:42:19.427Z,0.00
2019-02-18T03:43:19.409Z,0.00
2019-02-18T03:44:19.406Z,0.00
2019-02-18T03:45:19.397Z,0.00
2019-02-18T03:46:19.391Z,0.00
2019-02-18T03:47:19.412Z,0.00
2019-02-18T03:48:19.363Z,0.00
2019-02-18T03:49:19.356Z,0.00
2019-02-18T03:50:19.346Z,0.00
2019-02-18T03:51:19.336Z,0.00
2019-02-18T03:52:19.324Z,0.00
2019-02-18T03:53:19.343Z,0.00
2019-02-18T03:54:19.305Z,0.00
2019-02-18T03:55:19.275Z,0.00
2019-02-18T03:56:19.270Z,0.00
2019-02-18T03:57:19.284Z,0.00
2019-02-18T03:58:19.272Z,0.00
2019-02-18T03:59:19.252Z,0.00
2019-02-18T04:00:19.239Z,0.00
2019-02-18T04:01:19.244Z,0.00
2019-02-18T04:02:19.244Z,0.00
2019-02-18T04:03:19.198Z,0.00
2019-02-18T04:04:19.191Z,0.00
2019-02-18T04:05:19.189Z,0.00
2019-02-18T04:06:19.165Z,0.00
2019-02-18T04:07:19.156Z,0.00
2019-02-18T04:08:19.153Z,0.00
2019-02-18T04:09:19.135Z,0.00
2019-02-18T04:10:19.124Z,0.00
2019-02-18T04:11:19.119Z,0.00
2019-02-18T04:12:19.107Z,0.00
2019-02-18T04:13:19.115Z,0.00
2019-02-18T04:14:19.076Z,0.00
2019-02-18T04:15:19.067Z,0.00
2019-02-18T04:16:19.052Z,0.00
2019-02-18T04:17:19.050Z,0.00
2019-02-18T04:18:19.058Z,0.00
2019-02-18T04:19:19.055Z,0.00
2019-02-18T04:20:19.008Z,0.00
2019-02-18T04:21:18.998Z,0.00
2019-02-18T04:22:18.998Z,0.00
2019-02-18T04:23:18.993Z,0.00
2019-02-18T04:24:18.998Z,0.00
2019-02-18T04:25:18.956Z,0.00
2019-02-18T04:26:18.944Z,0.00
2019-02-18T04:27:18.930Z,0.00
2019-02-18T04:28:18.923Z,0.00
2019-02-18T04:29:18.911Z,0.00
2019-02-18T04:30:18.927Z,0.00
2019-02-18T04:31:18.895Z,0.00
2019-02-18T04:32:18.882Z,0.00
2019-02-18T04:33:18.868Z,0.00
2019-02-18T04:34:18.860Z,0.00
2019-02-18T04:35:18.865Z,0.00
2019-02-18T04:36:18.834Z,0.00
2019-02-18T04:37:18.845Z,0.00
2019-02-18T04:38:18.820Z,0.00
2019-02-18T04:39:18.797Z,0.00
2019-02-18T04:40:18.816Z,0.00
2019-02-18T04:41:18.808Z,0.00
2019-02-18T04:42:18.778Z,0.00
2019-02-18T04:43:18.770Z,0.00
2019-02-18T04:44:18.758Z,0.00
2019-02-18T04:45:18.767Z,0.00
2019-02-18T04:46:18.745Z,0.00
2019-02-18T04:47:18.721Z,0.00
2019-02-18T04:48:18.698Z,0.00
2019-02-18T04:49:18.686Z,0.00
2019-02-18T04:50:18.685Z,0.00
2019-02-18T04:51:18.703Z,0.00
2019-02-18T04:52:18.657Z,0.00
2019-02-18T04:53:18.642Z,0.00
2019-02-18T04:54:18.645Z,0.00
2019-02-18T04:55:18.631Z,0.00
2019-02-18T04:56:18.617Z,0.00
2019-02-18T04:57:18.626Z,0.00
2019-02-18T04:58:18.586Z,0.00
2019-02-18T04:59:18.581Z,0.00
2019-02-18T05:00:18.566Z,0.00
2019-02-18T05:01:18.560Z,0.00
2019-02-18T05:02:18.571Z,0.00
2019-02-18T05:03:18.544Z,0.00
2019-02-18T05:04:18.543Z,0.00
2019-02-18T05:05:18.531Z,0.00
2019-02-18T05:06:18.502Z,0.00
2019-02-18T05:07:18.526Z,0.00
2019-02-18T05:08:18.492Z,0.00
2019-02-18T05:09:18.479Z,0.00
2019-02-18T05:10:18.460Z,0.00
2019-02-18T05:11:18.454Z,0.00
2019-02-18T05:12:18.435Z,0.00
2019-02-18T05:13:18.454Z,0.00
2019-02-18T05:14:18.426Z,0.00
2019-02-18T05:15:18.420Z,0.00
2019-02-18T05:16:18.403Z,0.00
2019-02-18T05:17:18.389Z,0.00
2019-02-18T05:18:18.409Z,0.00
2019-02-18T05:19:18.369Z,0.00
2019-02-18T05:20:18.350Z,0.00
2019-02-18T05:21:18.347Z,0.00
2019-02-18T05:22:18.353Z,0.00
2019-02-18T05:23:18.328Z,0.00
2019-02-18T05:24:18.327Z,0.00
2019-02-18T05:25:18.306Z,0.00
2019-02-18T05:26:18.290Z,0.00
2019-02-18T05:27:18.284Z,0.00
2019-02-18T05:28:18.281Z,0.00
2019-02-18T05:29:18.286Z,0.00
2019-02-18T05:30:18.256Z,0.00
2019-02-18T05:31:18.235Z,0.00
2019-02-18T05:32:18.224Z,0.00
2019-02-18T05:33:18.218Z,0.00
2019-02-18T05:34:18.232Z,0.00
2019-02-18T05:35:18.200Z,0.00
2019-02-18T05:36:18.186Z,0.00
2019-02-18T05:37:18.183Z,0.00
2019-02-18T05:38:18.154Z,0.00
2019-02-18T05:39:18.710Z,0.00
2019-02-18T05:40:18.151Z,0.00
2019-02-18T05:41:18.147Z,0.00
2019-02-18T05:42:18.113Z,4.00
2019-02-18T05:43:18.106Z,4.00
2019-02-18T05:44:18.110Z,4.00
2019-02-18T05:45:18.160Z,0.00
2019-02-18T05:46:18.081Z,4.00
2019-02-18T05:47:18.067Z,4.00
2019-02-18T05:48:18.057Z,4.00
2019-02-18T05:49:18.044Z,8.00
2019-02-18T05:50:18.030Z,8.00
2019-02-18T05:51:18.068Z,8.00
2019-02-18T05:52:18.009Z,8.00
2019-02-18T05:53:17.991Z,12.00
2019-02-18T05:54:17.999Z,12.00
2019-02-18T05:55:17.979Z,12.00
2019-02-18T05:56:17.979Z,16.00
2019-02-18T05:57:17.968Z,20.00
2019-02-18T05:58:17.944Z,20.00
2019-02-18T05:59:17.936Z,28.00
2019-02-18T06:00:17.927Z,32.00
2019-02-18T06:01:17.948Z,36.00
2019-02-18T06:02:17.901Z,40.00
2019-02-18T06:03:17.887Z,52.00
2019-02-18T06:04:17.877Z,56.00
2019-02-18T06:05:17.869Z,64.00
2019-02-18T06:06:17.863Z,76.00
2019-02-18T06:07:17.869Z,84.00
2019-02-18T06:08:17.836Z,92.00
2019-02-18T06:09:28.469Z,104.00
2019-02-18T06:10:18.829Z,116.00
2019-02-18T06:11:17.797Z,128.00
2019-02-18T06:12:17.809Z,148.00
2019-02-18T06:13:17.800Z,164.00
2019-02-18T06:14:17.770Z,180.00
2019-02-18T06:15:17.751Z,200.00
2019-02-18T06:16:17.743Z,224.00
2019-02-18T06:17:17.751Z,244.00
2019-02-18T06:18:17.758Z,268.00
2019-02-18T06:19:17.722Z,292.00
2019-02-18T06:20:17.705Z,316.00
2019-02-18T06:21:17.703Z,344.00
2019-02-18T06:22:17.685Z,372.00
2019-02-18T06:23:17.687Z,404.00
2019-02-18T06:24:17.661Z,440.00
2019-02-18T06:25:17.645Z,480.00
2019-02-18T06:26:17.655Z,520.00
2019-02-18T06:27:17.641Z,556.00
2019-02-18T06:28:17.637Z,600.00
2019-02-18T06:29:17.601Z,644.00
2019-02-18T06:30:17.602Z,692.00
2019-02-18T06:31:17.590Z,744.00
2019-02-18T06:32:17.610Z,808.00
2019-02-18T06:33:17.582Z,880.00
2019-02-18T06:34:17.552Z,956.00
2019-02-18T06:35:17.534Z,1040.00
2019-02-18T06:36:17.523Z,1152.00
2019-02-18T06:37:17.517Z,1276.00
2019-02-18T06:38:17.536Z,1384.00
2019-02-18T06:39:17.499Z,1460.00
2019-02-18T06:40:17.490Z,1492.00
2019-02-18T06:41:17.477Z,1536.00
2019-02-18T06:42:17.455Z,1524.00
2019-02-18T06:43:17.469Z,1664.00
2019-02-18T06:44:17.460Z,1696.00
2019-02-18T06:45:17.436Z,1784.00
2019-02-18T06:46:17.421Z,1808.00
2019-02-18T06:47:17.411Z,2060.00
2019-02-18T06:48:17.418Z,2196.00
2019-02-18T06:49:17.391Z,2296.00
2019-02-18T06:50:17.396Z,2388.00
2019-02-18T06:51:17.371Z,2512.00
2019-02-18T06:52:17.359Z,2696.00
2019-02-18T06:53:17.381Z,2896.00
2019-02-18T06:54:17.356Z,3036.00
2019-02-18T06:55:17.315Z,3160.00
2019-02-18T06:56:17.308Z,3256.00
2019-02-18T06:57:17.299Z,3328.00
2019-02-18T06:58:17.294Z,3436.00
2019-02-18T06:59:17.300Z,3508.00
2019-02-18T07:00:17.262Z,3684.00
2019-02-18T07:01:17.255Z,3924.00
2019-02-18T07:02:17.252Z,4140.00
2019-02-18T07:03:18.592Z,4272.00
2019-02-18T07:04:17.250Z,4372.00
2019-02-18T07:05:17.214Z,4496.00
2019-02-18T07:06:17.219Z,4624.00
2019-02-18T07:07:17.187Z,4716.00
2019-02-18T07:08:17.179Z,4752.00
2019-02-18T07:09:17.181Z,4828.00
2019-02-18T07:10:17.163Z,4972.00
2019-02-18T07:11:17.172Z,5144.00
2019-02-18T07:12:17.141Z,5316.00
2019-02-18T07:13:17.131Z,5472.00
2019-02-18T07:14:17.140Z,5688.00
2019-02-18T07:15:17.103Z,5844.00
2019-02-18T07:16:17.092Z,5952.00
2019-02-18T07:17:17.084Z,6068.00
2019-02-18T07:18:17.064Z,6156.00
2019-02-18T07:19:17.051Z,5928.00
2019-02-18T07:20:17.063Z,5852.00
2019-02-18T07:21:17.033Z,6080.00
2019-02-18T07:22:17.048Z,6296.00
2019-02-18T07:23:17.020Z,6460.00
2019-02-18T07:24:17.033Z,6524.00
2019-02-18T07:25:17.000Z,6880.00
2019-02-18T07:26:16.983Z,7276.00
2019-02-18T07:27:16.990Z,7420.00
2019-02-18T07:28:16.949Z,7604.00
2019-02-18T07:29:16.947Z,7744.00
2019-02-18T07:30:16.949Z,7896.00
2019-02-18T07:31:16.928Z,7988.00
2019-02-18T07:32:16.928Z,8128.00
2019-02-18T07:33:16.898Z,8268.00
2019-02-18T07:34:16.897Z,8324.00
2019-02-18T07:35:16.921Z,8452.00
2019-02-18T07:36:16.880Z,8564.00
2019-02-18T07:37:16.871Z,8680.00
2019-02-18T07:38:16.845Z,8812.00
2019-02-18T07:39:16.844Z,8976.00
2019-02-18T07:40:16.826Z,9080.00
2019-02-18T07:41:16.846Z,9220.00
2019-02-18T07:42:16.814Z,9372.00
2019-02-18T07:43:16.801Z,9492.00
2019-02-18T07:44:16.787Z,9588.00
2019-02-18T07:45:16.776Z,9672.00
2019-02-18T07:46:16.758Z,9776.00
2019-02-18T07:47:16.759Z,9828.00
2019-02-18T07:48:16.763Z,9828.00
2019-02-18T07:49:16.739Z,9808.00
2019-02-18T07:50:20.582Z,9852.00
2019-02-18T07:51:16.701Z,10108.00
2019-02-18T07:52:16.721Z,10400.00
2019-02-18T07:53:16.687Z,10536.00
2019-02-18T07:54:16.683Z,10700.00
2019-02-18T07:55:16.670Z,10788.00
2019-02-18T07:56:16.658Z,10884.00
2019-02-18T07:57:16.644Z,11000.00
2019-02-18T07:58:16.643Z,11108.00
2019-02-18T07:59:16.617Z,11240.00
2019-02-18T08:00:16.605Z,11352.00
2019-02-18T08:01:16.594Z,11460.00
2019-02-18T08:02:16.611Z,11556.00
2019-02-18T08:03:16.607Z,11652.00
2019-02-18T08:04:16.558Z,11728.00
2019-02-18T08:05:16.550Z,11880.00
2019-02-18T08:06:16.548Z,12004.00
2019-02-18T08:07:16.532Z,12096.00
2019-02-18T08:08:16.549Z,12232.00
2019-02-18T08:09:16.511Z,12336.00
2019-02-18T08:10:16.499Z,12440.00
2019-02-18T08:11:16.487Z,12540.00
2019-02-18T08:12:16.470Z,12672.00
2019-02-18T08:13:16.472Z,12772.00
2019-02-18T08:14:16.483Z,12840.00
2019-02-18T08:15:16.442Z,12956.00
2019-02-18T08:16:16.453Z,13072.00
2019-02-18T08:17:16.426Z,13196.00
2019-02-18T08:18:16.406Z,13324.00
2019-02-18T08:19:16.413Z,13456.00
2019-02-18T08:20:16.383Z,13600.00
2019-02-18T08:21:16.379Z,13676.00
2019-02-18T08:22:16.362Z,13776.00
2019-02-18T08:23:16.347Z,13884.00
2019-02-18T08:24:16.357Z,14048.00
2019-02-18T08:25:16.326Z,14128.00
2019-02-18T08:26:16.328Z,14252.00
2019-02-18T08:27:16.327Z,14368.00
2019-02-18T08:28:16.304Z,14536.00
2019-02-18T08:29:16.336Z,14816.00
2019-02-18T08:30:16.276Z,14976.00
2019-02-18T08:31:16.255Z,15136.00
2019-02-18T08:32:16.250Z,15264.00
2019-02-18T08:33:16.255Z,15456.00
2019-02-18T08:34:16.233Z,15648.00
2019-02-18T08:35:16.258Z,15808.00
2019-02-18T08:36:16.201Z,16000.00
2019-02-18T08:37:16.193Z,16128.00
2019-02-18T08:38:16.192Z,16288.00
2019-02-18T08:39:16.180Z,16288.00
2019-02-18T08:40:22.363Z,16320.00
2019-02-18T08:41:17.175Z,16480.00
2019-02-18T08:42:16.136Z,17024.00
2019-02-18T08:43:16.129Z,17280.00
2019-02-18T08:44:16.117Z,17728.00
2019-02-18T08:45:16.105Z,17888.00
2019-02-18T08:46:16.129Z,17664.00
2019-02-18T08:47:16.095Z,18272.00
2019-02-18T08:48:16.082Z,18464.00
2019-02-18T08:49:16.101Z,18720.00
2019-02-18T08:50:16.054Z,19232.00
2019-02-18T08:51:16.048Z,19584.00
2019-02-18T08:52:16.043Z,20128.00
2019-02-18T08:53:16.030Z,20320.00
2019-02-18T08:54:16.014Z,20352.00
2019-02-18T08:55:16.018Z,20608.00
2019-02-18T08:56:15.997Z,20864.00
2019-02-18T08:57:15.971Z,20992.00
2019-02-18T08:58:15.989Z,20800.00
2019-02-18T08:59:15.965Z,20544.00
2019-02-18T09:00:15.965Z,20640.00
2019-02-18T09:01:15.938Z,20384.00
2019-02-18T09:02:15.927Z,20096.00
2019-02-18T09:03:15.946Z,19936.00
2019-02-18T09:04:15.896Z,19392.00
2019-02-18T09:05:15.920Z,18592.00
2019-02-18T09:06:15.887Z,18048.00
2019-02-18T09:07:15.876Z,17728.00
2019-02-18T09:08:15.851Z,17792.00
2019-02-18T09:09:15.864Z,17760.00
2019-02-18T09:10:15.850Z,17952.00
2019-02-18T09:11:15.832Z,17952.00
2019-02-18T09:12:15.826Z,18144.00
2019-02-18T09:13:15.810Z,18176.00
2019-02-18T09:14:15.809Z,18272.00
2019-02-18T09:15:15.782Z,18336.00
2019-02-18T09:16:15.783Z,18368.00
2019-02-18T09:17:15.756Z,18464.00
2019-02-18T09:18:15.756Z,18560.00
2019-02-18T09:19:15.750Z,18560.00
2019-02-18T09:20:15.735Z,18656.00
2019-02-18T09:21:15.746Z,18720.00
2019-02-18T09:22:15.698Z,18784.00
2019-02-18T09:23:15.701Z,18816.00
2019-02-18T09:24:15.714Z,18880.00
2019-02-18T09:25:15.693Z,19040.00
2019-02-18T09:26:15.685Z,19040.00
2019-02-18T09:27:15.678Z,19072.00
2019-02-18T09:28:15.641Z,19200.00
2019-02-18T09:29:15.628Z,19296.00
2019-02-18T09:30:15.624Z,19392.00
2019-02-18T09:31:15.641Z,19488.00
2019-02-18T09:32:15.606Z,19584.00
2019-02-18T09:33:15.596Z,19680.00
2019-02-18T09:34:15.569Z,19680.00
2019-02-18T09:35:15.551Z,19808.00
2019-02-18T09:36:15.559Z,19872.00
2019-02-18T09:37:15.557Z,19968.00
2019-02-18T09:38:24.394Z,20256.00
2019-02-18T09:39:16.531Z,20704.00
2019-02-18T09:40:15.511Z,21056.00
2019-02-18T09:41:15.531Z,21216.00
2019-02-18T09:42:15.490Z,21344.00
2019-02-18T09:43:15.476Z,21504.00
2019-02-18T09:44:15.469Z,21728.00
2019-02-18T09:45:15.463Z,21728.00
2019-02-18T09:46:15.444Z,21760.00
2019-02-18T09:47:15.453Z,21792.00
2019-02-18T09:48:15.451Z,21792.00
2019-02-18T09:49:15.409Z,21920.00
2019-02-18T09:50:15.416Z,21984.00
2019-02-18T09:51:15.405Z,22048.00
2019-02-18T09:52:15.426Z,22080.00
2019-02-18T09:53:15.379Z,22176.00
2019-02-18T09:54:15.378Z,22336.00
2019-02-18T09:55:15.350Z,22432.00
2019-02-18T09:56:15.355Z,22496.00
2019-02-18T09:57:15.345Z,22464.00
2019-02-18T09:58:15.336Z,22496.00
2019-02-18T09:59:15.310Z,22496.00
2019-02-18T10:00:15.301Z,22560.00
2019-02-18T10:01:15.290Z,22656.00
2019-02-18T10:02:15.287Z,22816.00
2019-02-18T10:03:15.310Z,22912.00
2019-02-18T10:04:15.272Z,22976.00
2019-02-18T10:05:15.257Z,23200.00
2019-02-18T10:06:15.244Z,23232.00
2019-02-18T10:07:15.246Z,23424.00
2019-02-18T10:08:15.212Z,23616.00
2019-02-18T10:09:15.218Z,23968.00
2019-02-18T10:10:15.201Z,24064.00
2019-02-18T10:11:15.198Z,24448.00
2019-02-18T10:12:18.317Z,25056.00
2019-02-18T10:13:15.234Z,25824.00
2019-02-18T10:14:15.188Z,26560.00
2019-02-18T10:15:15.151Z,26976.00
2019-02-18T10:16:15.141Z,27072.00
2019-02-18T10:17:15.134Z,27360.00
2019-02-18T10:18:15.107Z,27712.00
2019-02-18T10:19:15.127Z,28320.00
2019-02-18T10:20:15.090Z,28384.00
2019-02-18T10:21:15.106Z,28224.00
2019-02-18T10:22:15.100Z,28064.00
2019-02-18T10:23:15.067Z,27968.00
2019-02-18T10:24:15.076Z,27904.00
2019-02-18T10:25:15.043Z,27584.00
2019-02-18T10:26:15.102Z,27008.00
2019-02-18T10:27:15.021Z,27040.00
2019-02-18T10:28:15.024Z,27232.00
2019-02-18T10:29:15.025Z,27296.00
2019-02-18T10:30:15.017Z,27264.00
2019-02-18T10:31:14.977Z,27264.00
2019-02-18T10:32:14.965Z,27104.00
2019-02-18T10:33:14.953Z,27200.00
2019-02-18T10:34:14.956Z,27232.00
2019-02-18T10:35:14.943Z,27168.00
2019-02-18T10:36:14.957Z,27040.00
2019-02-18T10:37:14.920Z,26912.00
2019-02-18T10:38:14.904Z,26816.00
2019-02-18T10:39:14.893Z,26688.00
2019-02-18T10:40:14.925Z,26688.00
2019-02-18T10:41:14.880Z,26720.00
2019-02-18T10:42:14.870Z,26592.00
2019-02-18T10:43:14.871Z,26592.00
2019-02-18T10:44:14.843Z,26592.00
2019-02-18T10:45:14.854Z,26432.00
2019-02-18T10:46:14.855Z,26432.00
2019-02-18T10:47:14.825Z,26592.00
2019-02-18T10:48:14.809Z,26464.00
2019-02-18T10:49:19.726Z,26464.00
2019-02-18T10:50:15.776Z,26304.00
2019-02-18T10:51:14.818Z,26400.00
2019-02-18T10:52:14.758Z,26368.00
2019-02-18T10:53:14.747Z,26240.00
2019-02-18T10:54:14.738Z,26560.00
2019-02-18T10:55:14.737Z,26464.00
2019-02-18T10:56:14.719Z,26528.00
2019-02-18T10:57:14.742Z,26208.00
2019-02-18T10:58:14.690Z,26240.00
2019-02-18T10:59:14.687Z,26496.00
2019-02-18T11:00:14.679Z,26368.00
2019-02-18T11:01:14.673Z,26208.00
2019-02-18T11:02:14.663Z,26080.00
2019-02-18T11:03:14.647Z,26176.00
2019-02-18T11:04:14.629Z,26144.00
2019-02-18T11:05:14.616Z,25920.00
2019-02-18T11:06:14.618Z,26080.00
2019-02-18T11:07:14.662Z,26304.00
2019-02-18T11:08:14.604Z,26752.00
2019-02-18T11:09:14.586Z,26944.00
2019-02-18T11:10:14.569Z,26560.00
2019-02-18T11:11:17.133Z,26560.00
2019-02-18T11:12:14.539Z,26752.00
2019-02-18T11:13:14.615Z,26624.00
2019-02-18T11:14:14.530Z,26464.00
2019-02-18T11:15:14.543Z,27040.00
2019-02-18T11:16:14.510Z,27296.00
2019-02-18T11:17:14.494Z,27232.00
2019-02-18T11:18:14.491Z,27168.00
2019-02-18T11:19:14.494Z,26624.00
2019-02-18T11:20:14.475Z,26432.00
2019-02-18T11:21:14.459Z,26368.00
2019-02-18T11:22:14.441Z,26368.00
2019-02-18T11:23:14.424Z,26432.00
2019-02-18T11:24:14.441Z,26624.00
2019-02-18T11:25:14.412Z,26784.00
2019-02-18T11:26:14.406Z,26592.00
2019-02-18T11:27:14.414Z,26432.00
2019-02-18T11:28:14.390Z,26304.00
2019-02-18T11:29:14.417Z,26112.00
2019-02-18T11:30:14.363Z,26176.00
2019-02-18T11:31:14.348Z,25984.00
2019-02-18T11:32:14.346Z,25824.00
2019-02-18T11:33:14.342Z,26240.00
2019-02-18T11:34:14.324Z,25888.00
2019-02-18T11:35:14.338Z,25696.00
2019-02-18T11:36:14.315Z,25344.00
2019-02-18T11:37:14.295Z,25056.00
2019-02-18T11:38:14.283Z,24960.00
2019-02-18T11:39:14.278Z,24896.00
2019-02-18T11:40:14.270Z,24736.00
2019-02-18T11:41:14.287Z,24896.00
2019-02-18T11:42:14.229Z,24736.00
2019-02-18T11:43:14.217Z,24800.00
2019-02-18T11:44:14.215Z,24928.00
2019-02-18T11:45:14.236Z,24896.00
2019-02-18T11:46:14.200Z,24736.00
2019-02-18T11:47:14.241Z,24480.00
2019-02-18T11:48:14.195Z,24352.00
2019-02-18T11:49:14.164Z,24064.00
2019-02-18T11:50:14.162Z,23808.00
2019-02-18T11:51:14.152Z,23712.00
2019-02-18T11:52:14.169Z,23488.00
2019-02-18T11:53:14.124Z,22912.00
2019-02-18T11:54:14.114Z,20928.00
2019-02-18T11:55:14.107Z,17152.00
2019-02-18T11:56:14.088Z,15412.00
2019-02-18T11:57:14.082Z,14988.00
2019-02-18T11:58:14.092Z,14624.00
2019-02-18T11:59:23.732Z,14332.00
2019-02-18T12:00:15.059Z,14036.00
2019-02-18T12:01:14.041Z,13716.00
2019-02-18T12:02:14.038Z,13416.00
2019-02-18T12:03:14.033Z,13088.00
2019-02-18T12:04:14.006Z,12744.00
2019-02-18T12:05:14.015Z,12416.00
2019-02-18T12:06:13.974Z,12092.00
2019-02-18T12:07:13.964Z,11788.00
2019-02-18T12:08:14.000Z,11468.00
2019-02-18T12:09:13.946Z,11144.00
2019-02-18T12:10:13.971Z,10820.00
2019-02-18T12:11:13.933Z,10504.00
2019-02-18T12:12:13.922Z,10184.00
2019-02-18T12:13:13.918Z,9904.00
2019-02-18T12:14:13.948Z,9628.00
2019-02-18T12:15:13.914Z,9368.00
2019-02-18T12:16:13.866Z,9108.00
2019-02-18T12:17:20.508Z,8876.00
2019-02-18T12:18:14.865Z,8652.00
2019-02-18T12:19:13.844Z,8424.00
2019-02-18T12:20:13.910Z,8200.00
2019-02-18T12:21:14.085Z,8000.00
2019-02-18T12:22:13.822Z,7832.00
2019-02-18T12:23:13.803Z,7664.00
2019-02-18T12:24:13.795Z,7500.00
2019-02-18T12:25:13.779Z,7332.00
2019-02-18T12:26:13.778Z,7192.00
2019-02-18T12:27:13.748Z,7044.00
2019-02-18T12:28:13.741Z,6904.00
2019-02-18T12:29:13.731Z,6760.00
2019-02-18T12:30:13.753Z,6636.00
2019-02-18T12:31:13.722Z,6520.00